createdAt,value
2023-01-29T00:00:09.929Z,-1.86
2023-01-29T00:02:39.272Z,-1.88
2023-01-29T00:05:25.452Z,-1.92
2023-01-29T00:07:53.338Z,-1.93
2023-01-29T00:10:19.815Z,-1.87
2023-01-29T00:12:46.282Z,-1.97
2023-01-29T00:15:12.733Z,-1.97
2023-01-29T00:17:39.213Z,-2.02
2023-01-29T00:20:06.144Z,-2.02
2023-01-29T00:22:32.613Z,-2.10
2023-01-29T00:24:59.157Z,-2.02
2023-01-29T00:27:25.597Z,-1.90
2023-01-29T00:30:11.246Z,-1.84
2023-01-29T00:32:37.745Z,-1.89
2023-01-29T00:35:04.585Z,-2.04
2023-01-29T00:37:31.056Z,-2.07
2023-01-29T00:39:57.675Z,-2.04
2023-01-29T00:42:43.609Z,-2.03
2023-01-29T00:45:12.024Z,-2.12
2023-01-29T00:47:38.448Z,-2.11
2023-01-29T00:50:08.481Z,-2.06
2023-01-29T00:52:36.409Z,-1.93
2023-01-29T00:55:05.633Z,-1.99
2023-01-29T00:57:33.785Z,-2.03
2023-01-29T01:00:00.464Z,-2.01
2023-01-29T01:02:46.276Z,-2.07
2023-01-29T01:05:18.142Z,-2.02
2023-01-29T01:07:53.703Z,-2.08
2023-01-29T01:10:26.301Z,-2.07
2023-01-29T01:13:01.575Z,-2.09
2023-01-29T01:15:31.243Z,-2.00
2023-01-29T01:18:00.226Z,-1.95
2023-01-29T01:20:30.136Z,-1.96
2023-01-29T01:22:57.536Z,-2.05
2023-01-29T01:25:25.669Z,-2.07
2023-01-29T01:27:53.655Z,-2.09
2023-01-29T01:30:20.594Z,-2.11
2023-01-29T01:32:47.050Z,-2.16
2023-01-29T01:35:16.213Z,-2.06
2023-01-29T01:37:42.801Z,-2.06
2023-01-29T01:40:18.047Z,-2.05
2023-01-29T01:42:48.790Z,-2.01
2023-01-29T01:45:20.092Z,-2.01
2023-01-29T01:47:51.314Z,-1.91
2023-01-29T01:50:24.808Z,-1.91
2023-01-29T01:52:55.277Z,-1.91
2023-01-29T01:55:25.983Z,-2.01
2023-01-29T01:58:00.104Z,-2.10
2023-01-29T02:00:26.952Z,-2.23
2023-01-29T02:03:13.105Z,-2.18
2023-01-29T02:05:59.455Z,-2.19
2023-01-29T02:09:03.222Z,-2.22
2023-01-29T02:11:30.626Z,-2.20
2023-01-29T02:13:57.672Z,-2.16
2023-01-29T02:16:25.674Z,-2.12
2023-01-29T02:18:52.801Z,-2.08
2023-01-29T02:21:50.698Z,-2.09
2023-01-29T02:24:59.705Z,-2.18
2023-01-29T02:27:35.967Z,-2.29
2023-01-29T02:30:10.721Z,-2.26
2023-01-29T02:32:58.535Z,-2.20
2023-01-29T02:35:42.592Z,-2.20
2023-01-29T02:38:47.637Z,-2.17
2023-01-29T02:41:22.723Z,-2.16
2023-01-29T02:44:02.193Z,-2.21
2023-01-29T02:46:41.174Z,-2.25
2023-01-29T02:49:26.433Z,-2.27
2023-01-29T02:52:12.543Z,-2.33
2023-01-29T02:55:03.060Z,-2.35
2023-01-29T02:57:35.205Z,-2.30
2023-01-29T03:00:09.559Z,-2.17
2023-01-29T03:02:55.432Z,-2.26
2023-01-29T03:05:30.926Z,-2.14
2023-01-29T03:08:04.616Z,-2.10
2023-01-29T03:10:47.196Z,-2.09
2023-01-29T03:13:22.044Z,-2.11
2023-01-29T03:16:01.409Z,-2.18
2023-01-29T03:18:48.626Z,-2.24
2023-01-29T03:21:41.388Z,-2.30
2023-01-29T03:24:32.200Z,-2.30
2023-01-29T03:27:22.889Z,-2.27
2023-01-29T03:30:10.665Z,-2.20
2023-01-29T03:32:52.036Z,-2.12
2023-01-29T03:35:33.345Z,-2.18
2023-01-29T03:38:00.892Z,-2.25
2023-01-29T03:40:32.481Z,-2.12
2023-01-29T03:43:32.149Z,-2.28
2023-01-29T03:46:21.235Z,-2.58
2023-01-29T03:48:53.245Z,-2.45
2023-01-29T03:51:33.380Z,-2.30
2023-01-29T03:54:07.697Z,-2.18
2023-01-29T03:56:45.695Z,-2.18
2023-01-29T03:59:22.703Z,-2.31
2023-01-29T04:02:11.500Z,-2.32
2023-01-29T04:04:41.698Z,-2.54
2023-01-29T04:07:19.098Z,-2.69
2023-01-29T04:09:50.518Z,-2.85
2023-01-29T04:12:24.329Z,-2.80
2023-01-29T04:14:52.804Z,-2.93
2023-01-29T04:17:26.004Z,-2.85
2023-01-29T04:20:16.218Z,-2.78
2023-01-29T04:22:47.282Z,-2.45
2023-01-29T04:25:17.433Z,-2.40
2023-01-29T04:28:11.359Z,-2.65
2023-01-29T04:30:50.465Z,-2.66
2023-01-29T04:33:32.127Z,-2.58
2023-01-29T04:36:09.860Z,-2.62
2023-01-29T04:38:52.058Z,-2.52
2023-01-29T04:41:30.666Z,-2.41
2023-01-29T04:44:28.698Z,-2.41
2023-01-29T04:47:13.803Z,-2.35
2023-01-29T04:49:52.837Z,-2.30
2023-01-29T04:52:33.239Z,-2.29
2023-01-29T04:55:24.448Z,-2.32
2023-01-29T04:58:00.882Z,-2.29
2023-01-29T05:00:32.263Z,-2.33
2023-01-29T05:03:01.824Z,-2.27
2023-01-29T05:05:29.024Z,-2.20
2023-01-29T05:07:57.913Z,-2.28
2023-01-29T05:10:25.351Z,-2.27
2023-01-29T05:12:58.676Z,-2.28
2023-01-29T05:15:33.460Z,-2.20
2023-01-29T05:18:02.930Z,-2.34
2023-01-29T05:20:34.095Z,-2.43
2023-01-29T05:23:00.621Z,-2.42
2023-01-29T05:25:31.077Z,-2.40
2023-01-29T05:28:16.110Z,-2.33
2023-01-29T05:30:51.251Z,-2.28
2023-01-29T05:33:29.962Z,-2.38
2023-01-29T05:35:58.801Z,-2.39
2023-01-29T05:38:25.846Z,-2.28
2023-01-29T05:40:52.279Z,-2.27
2023-01-29T05:43:21.027Z,-2.38
2023-01-29T05:45:54.377Z,-2.45
2023-01-29T05:48:21.369Z,-2.41
2023-01-29T05:50:48.048Z,-2.52
2023-01-29T05:53:14.644Z,-2.55
2023-01-29T05:55:45.552Z,-2.46
2023-01-29T05:58:12.688Z,-2.52
2023-01-29T06:00:39.640Z,-2.45
2023-01-29T06:03:06.358Z,-2.46
2023-01-29T06:05:32.842Z,-2.43
2023-01-29T06:07:59.241Z,-2.36
2023-01-29T06:10:25.781Z,-2.43
2023-01-29T06:12:52.192Z,-2.43
2023-01-29T06:15:19.749Z,-2.45
2023-01-29T06:17:46.202Z,-2.44
2023-01-29T06:20:13.729Z,-2.47
2023-01-29T06:22:40.303Z,-2.48
2023-01-29T06:25:07.408Z,-2.56
2023-01-29T06:27:34.017Z,-2.56
2023-01-29T06:30:00.539Z,-2.53
2023-01-29T06:32:27.778Z,-2.59
2023-01-29T06:34:54.242Z,-2.53
2023-01-29T06:37:20.687Z,-2.60
2023-01-29T06:39:47.118Z,-2.56
2023-01-29T06:42:13.536Z,-2.43
2023-01-29T06:44:39.945Z,-2.45
2023-01-29T06:47:06.353Z,-2.43
2023-01-29T06:49:32.757Z,-2.56
2023-01-29T06:51:59.243Z,-2.56
2023-01-29T06:54:25.844Z,-2.57
2023-01-29T06:56:52.452Z,-2.62
2023-01-29T06:59:18.887Z,-2.54
2023-01-29T07:01:45.452Z,-2.48
2023-01-29T07:04:12.028Z,-2.47
2023-01-29T07:06:38.557Z,-2.42
2023-01-29T07:09:05.300Z,-2.60
2023-01-29T07:11:32.137Z,-2.61
2023-01-29T07:13:58.566Z,-2.52
2023-01-29T07:16:26.315Z,-2.55
2023-01-29T07:18:53.476Z,-2.54
2023-01-29T07:21:19.923Z,-2.71
2023-01-29T07:23:46.507Z,-2.71
2023-01-29T07:26:13.012Z,-2.57
2023-01-29T07:28:39.957Z,-2.46
2023-01-29T07:31:07.747Z,-2.38
2023-01-29T07:33:34.653Z,-2.33
2023-01-29T07:36:01.176Z,-2.29
2023-01-29T07:38:27.818Z,-2.29
2023-01-29T07:40:54.594Z,-2.23
2023-01-29T07:43:21.049Z,-2.23
2023-01-29T07:45:47.663Z,-2.23
2023-01-29T07:48:14.142Z,-2.29
2023-01-29T07:50:41.147Z,-2.46
2023-01-29T07:53:07.713Z,-2.57
2023-01-29T07:55:34.299Z,-2.62
2023-01-29T07:58:02.806Z,-2.48
2023-01-29T08:00:31.287Z,-2.31
2023-01-29T08:03:24.151Z,-2.26
2023-01-29T08:05:50.675Z,-2.19
2023-01-29T08:08:17.161Z,-2.10
2023-01-29T08:10:43.662Z,-1.89
2023-01-29T08:13:10.182Z,-1.88
2023-01-29T08:18:23.415Z,-1.91
2023-01-29T08:20:49.810Z,-1.94
2023-01-29T08:23:16.598Z,-2.01
2023-01-29T08:25:43.506Z,-2.11
2023-01-29T08:28:11.613Z,-2.25
2023-01-29T08:30:38.552Z,-2.36
2023-01-29T08:33:05.115Z,-2.39
2023-01-29T08:35:31.784Z,-2.40
2023-01-29T08:38:00.888Z,-2.16
2023-01-29T08:40:29.355Z,-2.08
2023-01-29T08:43:02.142Z,-1.97
2023-01-29T08:45:30.183Z,-1.96
2023-01-29T08:47:56.845Z,-2.02
2023-01-29T08:50:23.377Z,-2.30
2023-01-29T08:52:49.797Z,-2.11
2023-01-29T08:55:16.579Z,-1.97
2023-01-29T08:57:43.128Z,-2.02
2023-01-29T09:00:10.584Z,-1.85
2023-01-29T09:02:37.628Z,-1.78
2023-01-29T09:05:04.401Z,-1.72
2023-01-29T09:07:30.847Z,-1.58
2023-01-29T09:09:57.425Z,-1.59
2023-01-29T09:12:23.988Z,-1.62
2023-01-29T09:14:50.509Z,-1.54
2023-01-29T09:17:17.121Z,-1.49
2023-01-29T09:19:43.710Z,-1.51
2023-01-29T09:22:11.836Z,-1.39
2023-01-29T09:24:38.769Z,-1.39
2023-01-29T09:27:06.162Z,-1.37
2023-01-29T09:29:35.452Z,-1.30
2023-01-29T09:32:03.429Z,-1.11
2023-01-29T09:34:29.926Z,-1.06
2023-01-29T09:36:56.388Z,-1.12
2023-01-29T09:39:22.794Z,-1.00
2023-01-29T09:42:01.136Z,-0.83
2023-01-29T09:44:54.412Z,-0.76
2023-01-29T09:47:24.885Z,-1.09
2023-01-29T09:49:59.064Z,-1.48
2023-01-29T09:52:30.148Z,-1.35
2023-01-29T09:55:06.853Z,-1.38
2023-01-29T09:57:56.227Z,-1.36
2023-01-29T10:00:40.235Z,-1.13
2023-01-29T10:03:31.723Z,-0.87
2023-01-29T10:06:16.814Z,-0.95
2023-01-29T10:09:16.043Z,-0.74
2023-01-29T10:11:58.235Z,-0.47
2023-01-29T10:14:43.703Z,-0.37
2023-01-29T10:18:01.510Z,-0.20
2023-01-29T10:20:50.019Z,-0.36
2023-01-29T10:23:41.318Z,-0.53
2023-01-29T10:26:12.601Z,-0.65
2023-01-29T10:28:46.255Z,-0.49
2023-01-29T10:31:18.949Z,-0.70
2023-01-29T10:34:01.382Z,-0.98
2023-01-29T10:36:36.279Z,-0.86
2023-01-29T10:39:02.730Z,-0.76
2023-01-29T10:41:41.085Z,-0.45
2023-01-29T10:44:25.858Z,-0.37
2023-01-29T10:47:23.644Z,-0.29
2023-01-29T10:50:02.215Z,-0.33
2023-01-29T10:52:50.505Z,-0.15
2023-01-29T10:55:28.218Z,-0.14
2023-01-29T10:58:36.103Z,-0.27
2023-01-29T11:01:02.761Z,-0.05
2023-01-29T11:03:33.428Z,-0.06
2023-01-29T11:06:21.629Z,0.07
2023-01-29T11:08:48.021Z,-0.08
2023-01-29T11:11:17.693Z,-0.42
2023-01-29T11:13:57.522Z,-0.38
2023-01-29T11:16:24.436Z,-0.43
2023-01-29T11:18:54.420Z,-0.14
2023-01-29T11:21:21.295Z,-0.45
2023-01-29T11:23:48.044Z,-0.24
2023-01-29T11:26:20.619Z,-0.15
2023-01-29T11:28:49.605Z,-0.37
2023-01-29T11:31:22.409Z,-0.31
2023-01-29T11:33:52.511Z,-0.11
2023-01-29T11:36:28.484Z,-0.27
2023-01-29T11:39:08.838Z,-0.35
2023-01-29T11:42:04.492Z,-0.40
2023-01-29T11:44:41.875Z,-0.31
2023-01-29T11:47:20.957Z,-0.17
2023-01-29T11:49:59.584Z,-0.33
2023-01-29T11:52:34.729Z,-0.40
2023-01-29T11:55:05.337Z,-0.34
2023-01-29T11:57:42.866Z,-0.23
2023-01-29T12:00:18.677Z,-0.16
2023-01-29T12:02:53.780Z,0.09
2023-01-29T12:05:23.261Z,0.16
2023-01-29T12:07:53.212Z,-0.12
2023-01-29T12:10:40.990Z,-0.51
2023-01-29T12:13:10.767Z,-0.34
2023-01-29T12:15:47.457Z,0.00
2023-01-29T12:18:35.531Z,-0.29
2023-01-29T12:21:04.712Z,-0.19
2023-01-29T12:23:49.764Z,-0.32
2023-01-29T12:26:25.361Z,-0.16
2023-01-29T12:29:04.661Z,-0.27
2023-01-29T12:31:45.708Z,0.13
2023-01-29T12:34:38.316Z,0.32
2023-01-29T12:37:34.273Z,0.14
2023-01-29T12:40:01.679Z,0.10
2023-01-29T12:42:28.303Z,0.34
2023-01-29T12:45:01.342Z,0.38
2023-01-29T12:47:36.022Z,0.22
2023-01-29T12:50:08.004Z,0.09
2023-01-29T12:52:41.434Z,0.07
2023-01-29T12:55:22.067Z,-0.15
2023-01-29T12:57:59.166Z,-0.32
2023-01-29T13:00:29.507Z,-0.29
2023-01-29T13:03:26.517Z,-0.24
2023-01-29T13:05:57.013Z,-0.06
2023-01-29T13:08:30.546Z,0.29
2023-01-29T13:11:00.919Z,0.54
2023-01-29T13:13:54.473Z,0.27
2023-01-29T13:16:37.482Z,0.41
2023-01-29T13:19:13.882Z,0.12
2023-01-29T13:21:43.765Z,0.16
2023-01-29T13:24:15.793Z,0.17
2023-01-29T13:26:47.307Z,0.38
2023-01-29T13:29:25.402Z,0.30
2023-01-29T13:32:03.718Z,0.38
2023-01-29T13:34:32.295Z,0.25
2023-01-29T13:37:02.151Z,0.18
2023-01-29T13:39:30.395Z,0.25
2023-01-29T13:41:59.106Z,0.08
2023-01-29T13:44:32.344Z,0.21
2023-01-29T13:47:01.842Z,0.34
2023-01-29T13:49:41.340Z,0.48
2023-01-29T13:52:21.159Z,0.25
2023-01-29T13:54:57.219Z,0.18
2023-01-29T13:57:39.207Z,0.28
2023-01-29T14:00:05.935Z,0.45
2023-01-29T14:02:32.596Z,0.51
2023-01-29T14:05:30.282Z,0.43
2023-01-29T14:07:59.340Z,0.43
2023-01-29T14:10:31.431Z,0.31
2023-01-29T14:13:03.775Z,0.31
2023-01-29T14:15:39.232Z,0.24
2023-01-29T14:18:18.958Z,0.20
2023-01-29T14:20:48.259Z,0.08
2023-01-29T14:23:32.895Z,0.14
2023-01-29T14:26:01.076Z,-0.09
2023-01-29T14:28:30.857Z,-0.14
2023-01-29T14:30:57.827Z,-0.15
2023-01-29T14:33:27.537Z,-0.24
2023-01-29T14:35:56.804Z,-0.19
2023-01-29T14:38:28.614Z,0.14
2023-01-29T14:41:32.582Z,0.63
2023-01-29T14:44:36.776Z,0.61
2023-01-29T14:47:04.692Z,1.15
2023-01-29T14:49:58.998Z,1.29
2023-01-29T14:52:35.867Z,0.65
2023-01-29T14:55:06.837Z,0.16
2023-01-29T14:57:34.017Z,-0.06
2023-01-29T15:00:05.246Z,0.17
2023-01-29T15:02:40.478Z,0.08
2023-01-29T15:05:30.576Z,-0.29
2023-01-29T15:08:06.214Z,0.24
2023-01-29T15:10:40.023Z,0.70
2023-01-29T15:13:29.489Z,0.99
2023-01-29T15:16:02.723Z,1.19
2023-01-29T15:18:42.259Z,1.51
2023-01-29T15:21:17.026Z,1.36
2023-01-29T15:23:45.261Z,1.02
2023-01-29T15:26:18.678Z,0.81
2023-01-29T15:28:54.860Z,0.27
2023-01-29T15:31:25.899Z,0.27
2023-01-29T15:33:56.090Z,0.02
2023-01-29T15:36:24.348Z,-0.13
2023-01-29T15:39:09.433Z,-0.36
2023-01-29T15:41:35.884Z,-0.51
2023-01-29T15:44:02.308Z,-0.58
2023-01-29T15:46:36.254Z,-0.77
2023-01-29T15:49:08.641Z,-0.88
2023-01-29T15:51:35.572Z,-0.95
2023-01-29T15:54:04.776Z,-1.07
2023-01-29T15:56:36.169Z,-1.15
2023-01-29T15:59:09.830Z,-1.23
2023-01-29T16:01:36.658Z,-1.22
2023-01-29T16:04:04.192Z,-1.36
2023-01-29T16:06:37.535Z,-1.37
2023-01-29T16:09:05.398Z,-1.34
2023-01-29T16:11:33.210Z,-1.33
2023-01-29T16:14:01.328Z,-1.32
2023-01-29T16:16:28.549Z,-1.42
2023-01-29T16:19:00.423Z,-1.41
2023-01-29T16:21:33.244Z,-1.49
2023-01-29T16:24:11.823Z,-1.60
2023-01-29T16:26:43.549Z,-1.75
2023-01-29T16:29:11.969Z,-1.72
2023-01-29T16:31:39.656Z,-1.79
2023-01-29T16:34:25.995Z,-1.85
2023-01-29T16:36:54.671Z,-1.85
2023-01-29T16:39:27.666Z,-1.95
2023-01-29T16:42:17.481Z,-2.06
2023-01-29T16:44:54.758Z,-2.20
2023-01-29T16:47:31.408Z,-2.28
2023-01-29T16:50:54.318Z,-2.55
2023-01-29T16:53:23.283Z,-2.68
2023-01-29T16:55:52.388Z,-2.65
2023-01-29T16:58:26.000Z,-2.80
2023-01-29T17:01:00.057Z,-2.95
2023-01-29T17:03:28.522Z,-3.16
2023-01-29T17:05:55.004Z,-3.19
2023-01-29T17:08:33.632Z,-3.14
2023-01-29T17:11:01.328Z,-3.22
2023-01-29T17:13:42.636Z,-3.39
2023-01-29T17:16:32.378Z,-3.41
2023-01-29T17:19:00.220Z,-3.38
2023-01-29T17:21:26.933Z,-3.33
2023-01-29T17:23:53.807Z,-3.22
2023-01-29T17:26:21.009Z,-3.18
2023-01-29T17:28:51.247Z,-3.14
2023-01-29T17:31:17.830Z,-3.21
2023-01-29T17:33:45.807Z,-3.12
2023-01-29T17:36:15.279Z,-3.12
2023-01-29T17:38:41.951Z,-3.21
2023-01-29T17:41:18.338Z,-3.14
2023-01-29T17:43:44.891Z,-3.11
2023-01-29T17:46:16.718Z,-3.08
2023-01-29T17:48:43.767Z,-3.17
2023-01-29T17:51:15.012Z,-2.99
2023-01-29T17:53:45.889Z,-3.14
2023-01-29T17:56:30.897Z,-3.46
2023-01-29T17:58:57.313Z,-3.62
2023-01-29T18:01:23.886Z,-3.76
2023-01-29T18:03:50.407Z,-3.91
2023-01-29T18:06:28.624Z,-3.70
2023-01-29T18:08:56.401Z,-3.54
2023-01-29T18:11:23.451Z,-3.41
2023-01-29T18:13:50.788Z,-3.79
2023-01-29T18:16:18.453Z,-3.92
2023-01-29T18:18:44.983Z,-4.11
2023-01-29T18:21:11.476Z,-4.15
2023-01-29T18:23:37.942Z,-4.04
2023-01-29T18:26:04.805Z,-3.91
2023-01-29T18:28:31.363Z,-3.85
2023-01-29T18:30:57.830Z,-4.07
2023-01-29T18:33:25.789Z,-4.35
2023-01-29T18:35:54.939Z,-4.45
2023-01-29T18:38:21.437Z,-4.39
2023-01-29T18:40:47.926Z,-4.25
2023-01-29T18:43:15.279Z,-4.11
2023-01-29T18:45:42.066Z,-3.99
2023-01-29T18:48:08.793Z,-4.02
2023-01-29T18:50:36.329Z,-4.08
2023-01-29T18:53:04.205Z,-4.38
2023-01-29T18:55:30.723Z,-4.54
2023-01-29T18:58:24.929Z,-4.55
2023-01-29T19:00:43.843Z,-4.47
2023-01-29T19:03:11.092Z,-4.47
2023-01-29T19:05:37.869Z,-4.43
2023-01-29T19:08:05.488Z,-4.38
2023-01-29T19:10:32.054Z,-4.15
2023-01-29T19:12:58.498Z,-4.22
2023-01-29T19:15:24.955Z,-4.33
2023-01-29T19:17:51.659Z,-3.87
2023-01-29T19:20:18.779Z,-4.07
2023-01-29T19:22:45.372Z,-4.34
2023-01-29T19:25:12.583Z,-4.37
2023-01-29T19:27:39.208Z,-4.48
2023-01-29T19:30:06.277Z,-4.40
2023-01-29T19:32:33.047Z,-4.25
2023-01-29T19:34:59.594Z,-3.98
2023-01-29T19:37:26.156Z,-4.06
2023-01-29T19:39:53.755Z,-4.52
2023-01-29T19:42:20.885Z,-4.81
2023-01-29T19:44:47.633Z,-4.81
2023-01-29T19:47:14.217Z,-5.12
2023-01-29T19:49:40.731Z,-5.12
2023-01-29T19:52:14.795Z,-5.06
2023-01-29T19:54:46.539Z,-5.14
2023-01-29T19:57:12.898Z,-5.25
2023-01-29T19:59:39.452Z,-5.24
2023-01-29T20:02:06.371Z,-5.18
2023-01-29T20:04:32.975Z,-5.14
2023-01-29T20:06:59.405Z,-5.23
2023-01-29T20:09:25.910Z,-5.29
2023-01-29T20:11:52.423Z,-5.31
2023-01-29T20:14:18.866Z,-5.22
2023-01-29T20:16:45.344Z,-5.12
2023-01-29T20:19:14.346Z,-5.10
2023-01-29T20:21:42.508Z,-5.30
2023-01-29T20:24:12.623Z,-5.28
2023-01-29T20:26:39.151Z,-5.31
2023-01-29T20:29:06.392Z,-5.30
2023-01-29T20:31:33.756Z,-5.27
2023-01-29T20:34:00.196Z,-5.34
2023-01-29T20:36:26.670Z,-5.33
2023-01-29T20:38:53.127Z,-5.23
2023-01-29T20:41:19.853Z,-5.25
2023-01-29T20:43:47.295Z,-5.29
2023-01-29T20:46:14.267Z,-5.30
2023-01-29T20:48:41.982Z,-5.26
2023-01-29T20:51:15.454Z,-5.20
2023-01-29T20:53:45.043Z,-5.16
2023-01-29T20:56:12.918Z,-5.01
2023-01-29T20:58:40.998Z,-5.15
2023-01-29T21:01:09.665Z,-5.11
2023-01-29T21:03:36.580Z,-5.11
2023-01-29T21:06:03.001Z,-5.32
2023-01-29T21:08:29.520Z,-5.50
2023-01-29T21:10:56.149Z,-5.36
2023-01-29T21:13:22.713Z,-5.22
2023-01-29T21:15:52.597Z,-5.01
2023-01-29T21:18:19.553Z,-4.96
2023-01-29T21:20:46.041Z,-5.17
2023-01-29T21:23:12.500Z,-5.44
2023-01-29T21:25:39.605Z,-5.41
2023-01-29T21:28:06.087Z,-5.23
2023-01-29T21:30:33.743Z,-5.13
2023-01-29T21:33:00.173Z,-5.51
2023-01-29T21:35:26.683Z,-5.61
2023-01-29T21:37:53.186Z,-5.59
2023-01-29T21:40:21.143Z,-5.87
2023-01-29T21:43:06.495Z,-5.87
2023-01-29T21:45:34.774Z,-5.82
2023-01-29T21:48:02.302Z,-5.89
2023-01-29T21:50:28.761Z,-5.88
2023-01-29T21:52:55.188Z,-5.97
2023-01-29T21:55:21.648Z,-6.09
2023-01-29T21:57:48.768Z,-6.11
2023-01-29T22:00:16.003Z,-6.31
2023-01-29T22:02:42.743Z,-6.33
2023-01-29T22:05:18.652Z,-6.15
2023-01-29T22:07:45.755Z,-5.90
2023-01-29T22:10:12.784Z,-5.87
2023-01-29T22:12:39.904Z,-5.54
2023-01-29T22:15:07.805Z,-5.37
2023-01-29T22:17:35.180Z,-5.49
2023-01-29T22:20:02.085Z,-5.59
2023-01-29T22:22:28.552Z,-5.45
2023-01-29T22:24:56.413Z,-5.52
2023-01-29T22:27:22.887Z,-5.41
2023-01-29T22:29:49.362Z,-5.30
2023-01-29T22:32:16.331Z,-5.39
2023-01-29T22:34:42.857Z,-5.54
2023-01-29T22:37:09.262Z,-5.61
2023-01-29T22:39:35.799Z,-5.71
2023-01-29T22:42:02.192Z,-5.71
2023-01-29T22:44:28.661Z,-5.62
2023-01-29T22:46:55.102Z,-5.45
2023-01-29T22:49:21.594Z,-5.31
2023-01-29T22:51:48.100Z,-5.43
2023-01-29T22:54:15.497Z,-5.44
2023-01-29T22:56:41.950Z,-5.50
2023-01-29T22:59:10.051Z,-5.48
2023-01-29T23:01:36.556Z,-5.28
2023-01-29T23:04:03.038Z,-5.25
2023-01-29T23:06:29.510Z,-5.28
2023-01-29T23:08:55.994Z,-5.63
2023-01-29T23:11:23.472Z,-5.80
2023-01-29T23:13:52.727Z,-5.78
2023-01-29T23:16:21.792Z,-5.76
2023-01-29T23:18:53.215Z,-5.77
2023-01-29T23:21:22.610Z,-5.76
2023-01-29T23:23:49.284Z,-5.93
2023-01-29T23:26:34.619Z,-5.92
2023-01-29T23:29:01.166Z,-5.82
2023-01-29T23:31:27.760Z,-5.93
2023-01-29T23:33:54.249Z,-5.88
2023-01-29T23:36:21.173Z,-5.87
2023-01-29T23:38:47.643Z,-5.98
2023-01-29T23:41:14.097Z,-6.03
2023-01-29T23:43:40.576Z,-5.95
2023-01-29T23:46:07.429Z,-5.77
2023-01-29T23:48:33.943Z,-5.84
2023-01-29T23:51:00.608Z,-5.99
2023-01-29T23:53:27.488Z,-6.19
2023-01-29T23:55:59.192Z,-6.17
2023-01-29T23:58:26.470Z,-6.00
